Time;durP1;ratioP1;P1;durP2;ratioP2;P2;SDS_P1;SDS_P2;PMS_P1;PMS_P2;Temp;Humidity;BMP_temperature;BMP_pressure;BME280_temperature;BME280_humidity;BME280_pressure;Samples;Min_cycle;Max_cycle;Signal;HPM_P1;HPM_P2
2022/08/13 00:00:59;;;;;;;6.87;4.33;;;;;;;;;;5034881;28;20178;-68
2022/08/13 00:03:26;;;;;;;5.73;4.00;;;;;;;;;;5052620;28;20308;-67
2022/08/13 00:05:52;;;;;;;4.53;3.87;;;;;;;;;;5052575;28;20182;-68
2022/08/13 00:08:22;;;;;;;5.37;3.70;;;;;;;;;;5034891;28;20182;-68
2022/08/13 00:10:49;;;;;;;5.93;3.90;;;;;;;;;;5034850;28;20174;-67
2022/08/13 00:13:18;;;;;;;6.40;3.67;;;;;;;;;;5052799;28;20183;-68
2022/08/13 00:15:45;;;;;;;5.67;4.30;;;;;;;;;;5034519;28;20222;-68
2022/08/13 00:18:13;;;;;;;5.97;3.73;;;;;;;;;;5052631;28;20209;-68
2022/08/13 00:20:40;;;;;;;3.90;3.47;;;;;;;;;;5052586;28;20181;-68
2022/08/13 00:23:08;;;;;;;6.80;3.33;;;;;;;;;;5037209;28;20183;-68
2022/08/13 00:25:34;;;;;;;8.27;4.00;;;;;;;;;;5056541;28;20202;-68
2022/08/13 00:28:04;;;;;;;4.03;3.57;;;;;;;;;;5038347;28;20746;-68
2022/08/13 00:30:33;;;;;;;5.57;3.70;;;;;;;;;;5038477;28;20182;-68
2022/08/13 00:33:00;;;;;;;7.20;4.07;;;;;;;;;;5056191;28;20174;-68
2022/08/13 00:35:27;;;;;;;6.10;3.30;;;;;;;;;;5056038;28;20213;-68
2022/08/13 00:37:53;;;;;;;6.23;3.57;;;;;;;;;;5056637;28;20178;-68
2022/08/13 00:40:19;;;;;;;8.07;3.40;;;;;;;;;;5056493;28;20187;-68
2022/08/13 00:42:46;;;;;;;5.10;3.30;;;;;;;;;;5056154;28;20583;-68
2022/08/13 00:45:12;;;;;;;10.67;3.53;;;;;;;;;;5038189;28;20210;-68
2022/08/13 00:50:22;;;;;;;4.67;3.23;;;;;;;;;;5056346;28;20173;-68
2022/08/13 00:52:49;;;;;;;4.90;4.03;;;;;;;;;;5038058;28;20183;-67
2022/08/13 00:55:17;;;;;;;5.17;3.30;;;;;;;;;;5055992;28;20213;-68
2022/08/13 00:57:44;;;;;;;4.10;3.57;;;;;;;;;;5057901;28;20167;-68
2022/08/13 01:00:13;;;;;;;4.87;3.20;;;;;;;;;;5060214;28;20170;-68
2022/08/13 01:02:45;;;;;;;5.90;3.70;;;;;;;;;;5060413;28;20224;-68
2022/08/13 01:05:11;;;;;;;3.73;3.10;;;;;;;;;;5041788;28;20198;-68
2022/08/13 01:07:41;;;;;;;5.70;2.93;;;;;;;;;;5041440;28;20191;-67
2022/08/13 01:10:11;;;;;;;4.73;3.10;;;;;;;;;;5059481;28;20178;-67
2022/08/13 01:12:37;;;;;;;6.20;3.00;;;;;;;;;;5043082;28;20237;-68
2022/08/13 01:15:04;;;;;;;3.27;2.77;;;;;;;;;;5056506;28;20221;-68
2022/08/13 01:17:31;;;;;;;6.70;3.00;;;;;;;;;;5039502;28;20186;-67
2022/08/13 01:19:57;;;;;;;6.57;3.10;;;;;;;;;;5039148;28;20183;-68
2022/08/13 01:22:24;;;;;;;5.03;3.23;;;;;;;;;;5038976;28;20181;-67
2022/08/13 01:24:51;;;;;;;3.87;3.30;;;;;;;;;;5038143;28;20695;-68
2022/08/13 01:27:23;;;;;;;6.70;2.80;;;;;;;;;;5037966;28;20186;-68
2022/08/13 01:29:50;;;;;;;5.27;3.00;;;;;;;;;;5037620;28;20186;-68
2022/08/13 01:32:17;;;;;;;5.13;2.93;;;;;;;;;;5037387;28;20182;-68
2022/08/13 01:34:48;;;;;;;6.97;3.20;;;;;;;;;;5036232;28;20210;-68
2022/08/13 01:37:14;;;;;;;7.23;3.13;;;;;;;;;;5037358;28;20171;-68
2022/08/13 01:39:40;;;;;;;8.30;3.10;;;;;;;;;;5037118;28;20639;-67
2022/08/13 01:42:13;;;;;;;4.30;2.57;;;;;;;;;;5037241;28;20186;-67
2022/08/13 01:44:40;;;;;;;7.10;3.20;;;;;;;;;;5037105;28;20198;-67
2022/08/13 01:52:36;;;;;;;5.90;3.40;;;;;;;;;;5055419;28;20193;-67
2022/08/13 01:55:04;;;;;;;4.63;3.20;;;;;;;;;;5037190;28;20215;-67
2022/08/13 01:57:33;;;;;;;5.93;3.00;;;;;;;;;;5055351;28;20183;-67
2022/08/13 01:59:59;;;;;;;6.27;3.17;;;;;;;;;;5055445;28;20546;-67
2022/08/13 02:02:27;;;;;;;4.70;2.83;;;;;;;;;;5055581;28;20182;-67
2022/08/13 02:04:53;;;;;;;7.93;3.13;;;;;;;;;;5054968;28;20221;-67
2022/08/13 02:07:19;;;;;;;3.80;2.90;;;;;;;;;;5055066;28;20206;-67
2022/08/13 02:09:45;;;;;;;5.57;3.20;;;;;;;;;;5054584;28;20635;-67
2022/08/13 02:12:13;;;;;;;5.53;2.73;;;;;;;;;;5054818;28;20186;-67
2022/08/13 02:14:42;;;;;;;9.90;3.40;;;;;;;;;;5054105;28;20261;-67
2022/08/13 02:17:24;;;;;;;3.73;2.87;;;;;;;;;;5054381;28;20173;-67
2022/08/13 02:19:52;;;;;;;5.43;2.90;;;;;;;;;;5054547;28;20634;-67
2022/08/13 02:22:18;;;;;;;5.60;3.40;;;;;;;;;;5054303;28;20198;-67
2022/08/13 02:24:49;;;;;;;9.90;3.50;;;;;;;;;;5036257;28;20230;-67
2022/08/13 02:27:15;;;;;;;6.53;3.30;;;;;;;;;;5036319;28;20561;-67
2022/08/13 02:29:44;;;;;;;4.30;3.23;;;;;;;;;;5054159;28;20185;-67
2022/08/13 02:32:10;;;;;;;4.43;3.07;;;;;;;;;;5036226;28;20221;-67
2022/08/13 02:34:38;;;;;;;5.20;3.13;;;;;;;;;;5053933;28;20256;-67
2022/08/13 02:37:04;;;;;;;11.17;3.27;;;;;;;;;;5054284;28;20696;-68
2022/08/13 02:39:31;;;;;;;5.50;2.97;;;;;;;;;;5054540;28;20205;-68
2022/08/13 02:41:57;;;;;;;8.17;3.00;;;;;;;;;;5035994;28;20174;-68
2022/08/13 02:44:25;;;;;;;8.10;3.20;;;;;;;;;;5053976;28;20198;-68
2022/08/13 02:46:51;;;;;;;4.03;3.13;;;;;;;;;;5035815;28;20237;-68
2022/08/13 02:49:21;;;;;;;5.60;3.47;;;;;;;;;;5035997;28;20190;-68
2022/08/13 02:51:47;;;;;;;5.93;3.13;;;;;;;;;;5035896;28;20190;-68
2022/08/13 02:54:16;;;;;;;3.20;2.90;;;;;;;;;;5035772;28;20732;-68
2022/08/13 02:56:43;;;;;;;5.27;3.17;;;;;;;;;;5053525;28;20221;-68
2022/08/13 02:59:10;;;;;;;5.23;3.20;;;;;;;;;;5035750;28;20182;-68
2022/08/13 03:01:38;;;;;;;3.50;2.70;;;;;;;;;;5035733;28;20344;-68
2022/08/13 03:04:04;;;;;;;6.50;3.80;;;;;;;;;;5053811;28;20689;-67
2022/08/13 03:06:30;;;;;;;5.33;3.10;;;;;;;;;;5053492;28;20178;-68
2022/08/13 03:08:56;;;;;;;7.70;3.03;;;;;;;;;;5053665;28;20179;-67
2022/08/13 03:11:21;;;;;;;4.60;3.03;;;;;;;;;;5053606;28;20254;-68
2022/08/13 03:13:53;;;;;;;3.53;2.90;;;;;;;;;;5035264;28;20218;-68
2022/08/13 03:16:21;;;;;;;9.27;3.23;;;;;;;;;;5053804;28;20170;-68
2022/08/13 03:18:47;;;;;;;3.37;2.83;;;;;;;;;;5035381;28;20182;-67
2022/08/13 03:21:16;;;;;;;5.10;2.93;;;;;;;;;;5053230;28;20175;-67
2022/08/13 03:23:43;;;;;;;7.03;3.17;;;;;;;;;;5035354;28;20665;-68
2022/08/13 03:26:11;;;;;;;7.63;3.13;;;;;;;;;;5053360;28;20175;-68
2022/08/13 03:28:37;;;;;;;6.97;3.30;;;;;;;;;;5053105;28;20174;-68
2022/08/13 03:31:05;;;;;;;4.13;3.00;;;;;;;;;;5052117;23;20320;-65
2022/08/13 03:33:32;;;;;;;4.00;3.07;;;;;;;;;;5054858;28;20175;-65
2022/08/13 03:35:58;;;;;;;7.60;3.30;;;;;;;;;;5036665;28;20229;-65
2022/08/13 03:38:24;;;;;;;7.63;3.30;;;;;;;;;;5038092;28;20195;-65
2022/08/13 03:41:02;;;;;;;8.27;3.10;;;;;;;;;;5055106;28;20198;-65
2022/08/13 03:43:28;;;;;;;4.40;2.70;;;;;;;;;;5038807;28;20170;-65
2022/08/13 03:45:55;;;;;;;5.20;3.07;;;;;;;;;;5057260;28;20179;-65
2022/08/13 03:48:24;;;;;;;4.57;2.93;;;;;;;;;;5040461;28;20185;-65
2022/08/13 03:50:50;;;;;;;3.37;3.07;;;;;;;;;;5058415;28;20194;-65
2022/08/13 03:53:17;;;;;;;5.53;3.27;;;;;;;;;;5040287;28;20202;-65
2022/08/13 03:55:43;;;;;;;5.30;3.03;;;;;;;;;;5040414;28;20202;-65
2022/08/13 03:58:10;;;;;;;3.43;3.10;;;;;;;;;;5042427;28;20183;-65
2022/08/13 04:00:38;;;;;;;5.10;3.17;;;;;;;;;;5043793;28;20206;-65
2022/08/13 04:03:13;;;;;;;5.40;3.07;;;;;;;;;;5062262;28;20205;-67
2022/08/13 04:05:39;;;;;;;3.93;2.93;;;;;;;;;;5061856;28;20177;-65
2022/08/13 04:08:05;;;;;;;3.27;2.70;;;;;;;;;;5063995;28;20213;-66
2022/08/13 04:10:33;;;;;;;4.60;3.10;;;;;;;;;;5045646;28;20202;-66
2022/08/13 04:12:59;;;;;;;8.17;3.00;;;;;;;;;;5041550;28;20182;-66
2022/08/13 04:15:25;;;;;;;5.47;2.97;;;;;;;;;;5058535;28;20210;-66
2022/08/13 04:17:52;;;;;;;3.90;2.77;;;;;;;;;;5059706;28;20174;-64
2022/08/13 04:20:19;;;;;;;3.40;2.80;;;;;;;;;;5064410;28;20197;-66
2022/08/13 04:22:45;;;;;;;9.43;2.80;;;;;;;;;;5064011;28;20170;-65
2022/08/13 04:25:12;;;;;;;5.63;2.93;;;;;;;;;;5064528;28;20217;-66
2022/08/13 04:27:38;;;;;;;4.90;3.03;;;;;;;;;;5060161;28;20178;-66
2022/08/13 04:30:05;;;;;;;4.40;3.20;;;;;;;;;;5058191;28;20265;-66
2022/08/13 04:32:40;;;;;;;5.70;2.50;;;;;;;;;;5058871;28;20181;-66
2022/08/13 04:35:06;;;;;;;7.20;3.10;;;;;;;;;;5058454;28;20190;-66
2022/08/13 04:37:32;;;;;;;4.70;2.80;;;;;;;;;;5058050;28;20175;-66
2022/08/13 04:39:58;;;;;;;4.60;2.80;;;;;;;;;;5057774;28;20177;-65
2022/08/13 04:42:24;;;;;;;10.10;2.67;;;;;;;;;;5057642;28;20178;-66
2022/08/13 04:44:50;;;;;;;4.90;3.00;;;;;;;;;;5057995;28;20237;-66
2022/08/13 04:47:17;;;;;;;4.80;2.60;;;;;;;;;;5057961;28;20233;-66
2022/08/13 04:49:47;;;;;;;4.93;2.97;;;;;;;;;;5059414;28;20197;-66
2022/08/13 04:52:13;;;;;;;7.50;2.90;;;;;;;;;;5040048;28;20190;-65
2022/08/13 04:54:39;;;;;;;5.47;3.20;;;;;;;;;;5057883;28;20203;-66
2022/08/13 04:57:05;;;;;;;4.67;2.77;;;;;;;;;;5040450;28;20185;-66
2022/08/13 04:59:31;;;;;;;3.60;3.30;;;;;;;;;;5058016;28;20247;-66
2022/08/13 05:01:57;;;;;;;11.20;3.40;;;;;;;;;;5058424;28;20198;-66
2022/08/13 05:04:23;;;;;;;4.70;3.20;;;;;;;;;;5059222;28;20206;-66
2022/08/13 05:06:51;;;;;;;6.87;2.97;;;;;;;;;;5042898;28;20197;-66
2022/08/13 05:09:17;;;;;;;3.80;3.00;;;;;;;;;;5059041;28;20174;-66
2022/08/13 05:11:43;;;;;;;4.50;2.90;;;;;;;;;;5060283;28;20273;-66
2022/08/13 05:14:08;;;;;;;4.03;2.77;;;;;;;;;;5059989;28;20182;-66
2022/08/13 05:16:34;;;;;;;7.50;3.03;;;;;;;;;;5060138;28;20561;-66
2022/08/13 05:19:03;;;;;;;6.77;2.80;;;;;;;;;;5042332;28;20552;-66
2022/08/13 05:21:30;;;;;;;4.43;2.90;;;;;;;;;;5061358;28;20281;-66
2022/08/13 05:23:56;;;;;;;9.17;3.30;;;;;;;;;;5061785;28;20166;-66
2022/08/13 05:26:23;;;;;;;7.37;3.60;;;;;;;;;;5061721;28;20175;-66
2022/08/13 05:28:50;;;;;;;8.37;2.80;;;;;;;;;;5061717;28;20171;-66
2022/08/13 05:31:19;;;;;;;5.43;3.00;;;;;;;;;;5041034;28;20225;-66
2022/08/13 05:33:45;;;;;;;4.30;3.40;;;;;;;;;;5041691;28;20230;-66
2022/08/13 05:36:11;;;;;;;7.93;3.33;;;;;;;;;;5059100;28;20198;-66
2022/08/13 05:38:37;;;;;;;3.97;3.17;;;;;;;;;;5058545;28;20175;-64
2022/08/13 05:41:08;;;;;;;5.80;3.23;;;;;;;;;;5058353;28;20282;-66
2022/08/13 05:43:36;;;;;;;5.07;3.20;;;;;;;;;;5057019;28;20163;-66
2022/08/13 05:46:02;;;;;;;3.63;3.10;;;;;;;;;;5056838;28;20229;-65
2022/08/13 05:48:34;;;;;;;6.13;3.00;;;;;;;;;;5039383;28;20183;-64
2022/08/13 05:51:03;;;;;;;6.47;3.40;;;;;;;;;;5056015;28;20194;-65
2022/08/13 05:53:31;;;;;;;5.00;3.00;;;;;;;;;;5038707;28;20651;-65
2022/08/13 05:55:57;;;;;;;11.13;3.67;;;;;;;;;;5057887;28;20202;-65
2022/08/13 05:58:23;;;;;;;7.50;3.37;;;;;;;;;;5056948;28;20541;-65
2022/08/13 06:03:35;;;;;;;4.83;3.10;;;;;;;;;;5056234;28;20213;-65
2022/08/13 06:06:06;;;;;;;9.30;3.20;;;;;;;;;;5056923;28;20175;-65
2022/08/13 06:08:35;;;;;;;6.87;3.17;;;;;;;;;;5038200;28;20198;-65
2022/08/13 06:11:02;;;;;;;13.33;3.43;;;;;;;;;;5056312;28;20206;-65
2022/08/13 06:13:28;;;;;;;5.83;3.20;;;;;;;;;;5056550;28;20178;-65
2022/08/13 06:16:01;;;;;;;6.20;3.00;;;;;;;;;;5055952;28;20198;-65
2022/08/13 06:18:32;;;;;;;4.67;3.10;;;;;;;;;;5037796;28;20170;-65
2022/08/13 06:21:03;;;;;;;9.30;3.47;;;;;;;;;;5054704;28;20194;-65
2022/08/13 06:23:30;;;;;;;7.03;2.97;;;;;;;;;;5037068;28;20281;-65
2022/08/13 06:25:57;;;;;;;4.87;3.00;;;;;;;;;;5055086;28;20182;-65
2022/08/13 06:28:25;;;;;;;9.60;3.20;;;;;;;;;;5054568;28;20178;-65
2022/08/13 06:30:53;;;;;;;3.70;2.97;;;;;;;;;;5054430;28;20305;-65
2022/08/13 06:33:22;;;;;;;5.53;3.13;;;;;;;;;;5054564;28;20189;-65
2022/08/13 06:36:01;;;;;;;7.90;3.10;;;;;;;;;;5036653;28;20202;-66
2022/08/13 06:38:32;;;;;;;4.77;2.93;;;;;;;;;;5036653;28;20175;-66
2022/08/13 06:41:01;;;;;;;3.20;2.70;;;;;;;;;;5055011;28;20304;-65
2022/08/13 06:43:29;;;;;;;4.27;2.57;;;;;;;;;;5055182;28;20684;-66
2022/08/13 06:45:55;;;;;;;4.20;2.70;;;;;;;;;;5054775;28;20262;-66
2022/08/13 06:48:22;;;;;;;3.93;2.70;;;;;;;;;;5054511;28;20602;-66
2022/08/13 06:50:50;;;;;;;9.23;2.80;;;;;;;;;;5036500;28;20252;-66
2022/08/13 06:53:17;;;;;;;7.47;2.83;;;;;;;;;;5036885;28;20273;-67
2022/08/13 06:55:44;;;;;;;3.57;2.43;;;;;;;;;;5054520;28;20677;-67
2022/08/13 06:58:10;;;;;;;2.90;2.60;;;;;;;;;;5036630;28;20186;-67
2022/08/13 07:00:38;;;;;;;9.77;2.83;;;;;;;;;;5036465;28;20667;-67
2022/08/13 07:03:04;;;;;;;3.60;2.90;;;;;;;;;;5054330;28;20240;-67
2022/08/13 07:05:48;;;;;;;4.10;2.77;;;;;;;;;;5054335;28;20643;-67
2022/08/13 07:08:14;;;;;;;5.23;2.80;;;;;;;;;;5054455;28;20249;-67
2022/08/13 07:10:44;;;;;;;3.10;2.50;;;;;;;;;;5035937;28;20253;-66
2022/08/13 07:13:10;;;;;;;3.67;2.83;;;;;;;;;;5054085;28;20626;-65
2022/08/13 07:15:36;;;;;;;3.33;2.63;;;;;;;;;;5054197;28;20194;-67
2022/08/13 07:18:03;;;;;;;4.00;2.90;;;;;;;;;;5054148;28;20181;-66
2022/08/13 07:20:29;;;;;;;3.07;2.73;;;;;;;;;;5036582;28;20658;-66
2022/08/13 07:22:57;;;;;;;4.77;2.60;;;;;;;;;;5036715;28;20595;-66
2022/08/13 07:25:24;;;;;;;5.60;2.80;;;;;;;;;;5036374;28;20294;-64
2022/08/13 07:27:51;;;;;;;3.90;3.27;;;;;;;;;;5053884;28;20210;-66
2022/08/13 07:30:18;;;;;;;5.13;2.70;;;;;;;;;;5035633;28;20233;-65
2022/08/13 07:32:44;;;;;;;5.37;3.00;;;;;;;;;;5053640;28;20213;-66
2022/08/13 07:35:11;;;;;;;4.37;2.90;;;;;;;;;;5053692;28;20239;-67
2022/08/13 07:37:37;;;;;;;3.07;2.60;;;;;;;;;;5035994;28;20179;-67
2022/08/13 07:40:04;;;;;;;4.73;2.70;;;;;;;;;;5035747;28;20264;-67
2022/08/13 07:42:32;;;;;;;5.67;2.93;;;;;;;;;;5054024;28;20206;-67
2022/08/13 07:44:59;;;;;;;3.20;2.90;;;;;;;;;;5055060;28;20202;-67
2022/08/13 07:47:25;;;;;;;4.43;2.83;;;;;;;;;;5036523;28;20693;-67
2022/08/13 07:49:54;;;;;;;8.30;2.77;;;;;;;;;;5055196;28;20228;-67
2022/08/13 07:52:20;;;;;;;4.90;2.50;;;;;;;;;;5055108;28;20198;-67
2022/08/13 07:54:47;;;;;;;3.73;2.70;;;;;;;;;;5055305;28;20697;-67
2022/08/13 07:57:13;;;;;;;3.70;2.93;;;;;;;;;;5055256;28;20309;-66
2022/08/13 07:59:39;;;;;;;3.73;3.00;;;;;;;;;;5055233;28;20211;-67
2022/08/13 08:02:06;;;;;;;6.20;2.70;;;;;;;;;;5055523;28;20198;-67
2022/08/13 08:04:34;;;;;;;4.93;2.60;;;;;;;;;;5037452;28;20182;-67
2022/08/13 08:07:01;;;;;;;4.23;2.77;;;;;;;;;;5055300;28;20178;-66
2022/08/13 08:09:31;;;;;;;3.00;2.60;;;;;;;;;;5037287;28;20221;-66
2022/08/13 08:14:44;;;;;;;2.67;2.37;;;;;;;;;;5054604;28;20212;-67
2022/08/13 08:17:11;;;;;;;6.43;2.97;;;;;;;;;;5054264;28;20181;-67
2022/08/13 08:19:46;;;;;;;3.10;2.80;;;;;;;;;;5036329;28;20234;-67
2022/08/13 08:22:12;;;;;;;4.87;2.83;;;;;;;;;;5036224;28;20181;-66
2022/08/13 08:24:39;;;;;;;8.17;2.67;;;;;;;;;;5054232;28;20230;-67
2022/08/13 08:27:06;;;;;;;6.17;2.80;;;;;;;;;;5054030;28;20175;-68
2022/08/13 08:29:36;;;;;;;6.83;2.67;;;;;;;;;;5054040;28;20189;-67
2022/08/13 08:32:08;;;;;;;2.80;2.60;;;;;;;;;;5054006;28;20214;-70
2022/08/13 08:34:35;;;;;;;3.67;2.73;;;;;;;;;;5036374;28;20202;-68
2022/08/13 08:37:01;;;;;;;11.27;2.87;;;;;;;;;;5054143;28;20635;-70
2022/08/13 08:45:00;;;;;;;7.57;2.87;;;;;;;;;;5058016;28;20216;-67
2022/08/13 08:47:35;;;;;;;4.80;2.30;;;;;;;;;;5057944;28;20177;-67
2022/08/13 08:50:02;;;;;;;3.70;2.40;;;;;;;;;;5039379;28;20162;-67
2022/08/13 08:55:13;;;;;;;3.33;2.63;;;;;;;;;;5056984;28;20705;-68
2022/08/13 08:57:44;;;;;;;2.20;2.00;;;;;;;;;;5039057;28;20182;-67
2022/08/13 09:00:21;;;;;;;3.87;2.37;;;;;;;;;;5056826;28;20194;-68
2022/08/13 09:02:52;;;;;;;2.73;2.40;;;;;;;;;;5038708;28;20216;-67
2022/08/13 09:05:21;;;;;;;2.47;2.27;;;;;;;;;;5056587;28;20178;-67
2022/08/13 09:07:47;;;;;;;4.70;2.30;;;;;;;;;;5057093;28;20257;-67
2022/08/13 09:10:14;;;;;;;2.30;2.10;;;;;;;;;;5057027;28;20191;-68
2022/08/13 09:12:42;;;;;;;5.23;2.13;;;;;;;;;;5038941;28;20182;-67
2022/08/13 09:15:09;;;;;;;2.77;2.30;;;;;;;;;;5038989;28;20201;-67
2022/08/13 09:17:36;;;;;;;3.87;2.30;;;;;;;;;;5056540;28;20670;-67
2022/08/13 09:20:03;;;;;;;3.60;2.40;;;;;;;;;;5056668;28;20179;-67
2022/08/13 09:22:29;;;;;;;3.93;2.10;;;;;;;;;;5038143;28;20193;-66
2022/08/13 09:24:57;;;;;;;2.30;2.10;;;;;;;;;;5038634;28;20191;-66
2022/08/13 09:27:23;;;;;;;2.60;2.30;;;;;;;;;;5056383;28;20663;-66
2022/08/13 09:29:50;;;;;;;3.73;2.13;;;;;;;;;;5056347;28;20183;-66
2022/08/13 09:32:16;;;;;;;2.27;2.03;;;;;;;;;;5037617;28;20200;-66
2022/08/13 09:34:45;;;;;;;1.93;1.83;;;;;;;;;;5055917;28;20289;-67
2022/08/13 09:37:12;;;;;;;2.67;2.07;;;;;;;;;;5057070;28;20214;-66
2022/08/13 09:39:52;;;;;;;3.77;2.23;;;;;;;;;;5073389;22;20197;-66
2022/08/13 09:42:24;;;;;;;2.13;1.93;;;;;;;;;;5054207;28;20190;-66
2022/08/13 09:45:00;;;;;;;1.83;1.73;;;;;;;;;;5055366;28;20626;-67
2022/08/13 09:47:26;;;;;;;2.43;2.07;;;;;;;;;;5055091;28;20158;-67
2022/08/13 09:49:52;;;;;;;2.40;2.20;;;;;;;;;;5054926;28;20329;-66
2022/08/13 09:52:20;;;;;;;2.43;2.07;;;;;;;;;;5053359;28;20190;-67
2022/08/13 09:54:46;;;;;;;3.27;2.00;;;;;;;;;;5054066;28;20709;-67
2022/08/13 09:57:12;;;;;;;3.37;2.30;;;;;;;;;;5053549;28;20179;-67
2022/08/13 09:59:39;;;;;;;2.57;2.40;;;;;;;;;;5054819;28;20176;-67
2022/08/13 10:02:08;;;;;;;2.60;2.40;;;;;;;;;;5055038;28;20178;-67
2022/08/13 10:04:34;;;;;;;3.53;2.30;;;;;;;;;;5054669;28;20174;-67
2022/08/13 10:07:00;;;;;;;4.77;2.10;;;;;;;;;;5054384;28;20532;-67
2022/08/13 10:09:26;;;;;;;3.07;2.13;;;;;;;;;;5054308;28;20187;-67
2022/08/13 10:11:53;;;;;;;4.77;2.50;;;;;;;;;;5054399;28;20257;-67
2022/08/13 10:14:19;;;;;;;4.30;1.93;;;;;;;;;;5053081;28;20657;-67
2022/08/13 10:16:44;;;;;;;3.33;2.10;;;;;;;;;;5052825;28;20257;-67
2022/08/13 10:19:11;;;;;;;2.17;2.07;;;;;;;;;;5052871;28;20545;-67
2022/08/13 10:21:37;;;;;;;3.60;2.00;;;;;;;;;;5052736;28;20747;-67
2022/08/13 10:24:04;;;;;;;3.30;1.93;;;;;;;;;;5054421;28;20230;-67
2022/08/13 10:26:30;;;;;;;2.30;2.10;;;;;;;;;;5052948;28;20200;-67
2022/08/13 10:28:56;;;;;;;2.70;2.00;;;;;;;;;;5054022;28;20697;-67
2022/08/13 10:31:28;;;;;;;3.47;2.20;;;;;;;;;;5054507;28;20198;-67
2022/08/13 10:33:54;;;;;;;2.47;2.00;;;;;;;;;;5055063;28;20253;-67
2022/08/13 10:36:21;;;;;;;2.60;1.97;;;;;;;;;;5055181;28;20202;-66
2022/08/13 10:38:47;;;;;;;2.30;2.10;;;;;;;;;;5055393;28;20177;-66
2022/08/13 10:41:13;;;;;;;3.33;2.27;;;;;;;;;;5055031;28;20709;-67
2022/08/13 10:43:40;;;;;;;2.43;2.07;;;;;;;;;;5055680;28;20175;-67
2022/08/13 10:46:11;;;;;;;2.00;1.90;;;;;;;;;;5055277;28;20634;-67
2022/08/13 10:48:37;;;;;;;3.00;2.13;;;;;;;;;;5053880;28;20208;-66
2022/08/13 10:51:03;;;;;;;3.90;2.20;;;;;;;;;;5053855;28;20195;-67
2022/08/13 10:56:16;;;;;;;2.20;2.00;;;;;;;;;;5053412;28;20208;-66
2022/08/13 10:58:42;;;;;;;2.50;2.30;;;;;;;;;;5053948;28;20205;-66
2022/08/13 11:01:09;;;;;;;2.23;2.00;;;;;;;;;;5053381;28;20597;-67
2022/08/13 11:03:35;;;;;;;3.10;2.33;;;;;;;;;;5053295;28;20687;-67
2022/08/13 11:06:03;;;;;;;2.70;2.20;;;;;;;;;;5053432;28;20258;-67
2022/08/13 11:08:31;;;;;;;4.13;2.23;;;;;;;;;;5053305;28;20232;-67
2022/08/13 11:10:57;;;;;;;2.90;2.13;;;;;;;;;;5053374;28;20320;-67
2022/08/13 11:13:23;;;;;;;2.80;2.17;;;;;;;;;;5051852;28;20236;-66
2022/08/13 11:15:49;;;;;;;2.30;2.10;;;;;;;;;;5053551;28;20206;-67
2022/08/13 11:18:15;;;;;;;2.53;2.30;;;;;;;;;;5051886;28;20269;-67
2022/08/13 11:21:02;;;;;;;2.40;2.10;;;;;;;;;;5051834;28;20194;-67
2022/08/13 11:23:27;;;;;;;2.30;2.10;;;;;;;;;;5052932;28;20193;-67
2022/08/13 11:25:53;;;;;;;2.25;2.10;;;;;;;;;;5053057;28;20178;-67
2022/08/13 11:28:19;;;;;;;2.50;2.30;;;;;;;;;;5051742;28;20299;-67
2022/08/13 11:30:44;;;;;;;2.75;2.55;;;;;;;;;;5052955;28;20242;-67
2022/08/13 11:33:10;;;;;;;3.80;2.10;;;;;;;;;;5051734;28;20616;-67
2022/08/13 11:35:36;;;;;;;2.30;2.10;;;;;;;;;;5051680;28;20299;-67
2022/08/13 11:38:07;;;;;;;2.30;2.10;;;;;;;;;;5052860;28;20229;-67
2022/08/13 11:40:33;;;;;;;2.40;2.20;;;;;;;;;;5052838;28;20632;-67
2022/08/13 11:42:59;;;;;;;4.50;2.20;;;;;;;;;;5051579;28;20181;-67
2022/08/13 11:45:25;;;;;;;3.03;2.57;;;;;;;;;;5053066;28;20175;-67
2022/08/13 11:47:51;;;;;;;2.33;2.13;;;;;;;;;;5052955;28;20182;-67
2022/08/13 11:50:17;;;;;;;2.60;2.40;;;;;;;;;;5051713;28;20207;-68
2022/08/13 11:52:43;;;;;;;2.38;2.20;;;;;;;;;;5053259;28;20250;-67
2022/08/13 11:55:09;;;;;;;2.37;2.20;;;;;;;;;;5052773;28;20209;-67
2022/08/13 11:57:35;;;;;;;2.67;2.25;;;;;;;;;;5053179;28;20182;-67
2022/08/13 12:00:01;;;;;;;2.60;2.40;;;;;;;;;;5053455;28;20580;-67
2022/08/13 12:02:27;;;;;;;2.22;2.03;;;;;;;;;;5052873;28;20182;-67
2022/08/13 12:04:53;;;;;;;3.20;2.40;;;;;;;;;;5052822;28;20197;-67
2022/08/13 12:07:19;;;;;;;2.43;2.23;;;;;;;;;;5053407;28;20205;-66
2022/08/13 12:09:45;;;;;;;5.30;2.40;;;;;;;;;;5052515;28;20178;-67
2022/08/13 12:12:11;;;;;;;2.60;2.40;;;;;;;;;;5052789;28;20186;-66
2022/08/13 12:14:38;;;;;;;6.45;2.28;;;;;;;;;;5052431;28;20209;-67
2022/08/13 12:17:04;;;;;;;3.22;2.40;;;;;;;;;;5051424;28;20182;-67
2022/08/13 12:19:30;;;;;;;2.53;2.10;;;;;;;;;;5055458;28;20201;-67
2022/08/13 12:21:56;;;;;;;6.93;2.50;;;;;;;;;;5055098;28;20178;-67
2022/08/13 12:24:22;;;;;;;3.67;2.47;;;;;;;;;;5055139;28;20206;-67
2022/08/13 12:26:48;;;;;;;2.28;2.13;;;;;;;;;;5056256;28;20178;-67
2022/08/13 12:29:14;;;;;;;2.23;2.10;;;;;;;;;;5056505;28;20201;-67
2022/08/13 12:31:40;;;;;;;3.37;2.30;;;;;;;;;;5056289;28;20567;-67
2022/08/13 12:34:06;;;;;;;2.30;2.10;;;;;;;;;;5056257;28;20543;-67
2022/08/13 12:36:32;;;;;;;4.55;2.25;;;;;;;;;;5055007;28;20206;-67
2022/08/13 12:38:58;;;;;;;2.63;2.28;;;;;;;;;;5054854;28;20271;-67
2022/08/13 12:41:24;;;;;;;3.55;2.42;;;;;;;;;;5054688;28;20250;-66
2022/08/13 12:43:50;;;;;;;4.72;2.13;;;;;;;;;;5056057;28;20183;-68
2022/08/13 12:46:16;;;;;;;3.83;2.05;;;;;;;;;;5056265;28;20248;-67
2022/08/13 12:48:42;;;;;;;2.40;2.20;;;;;;;;;;5055760;28;20170;-67
2022/08/13 12:51:08;;;;;;;2.53;2.33;;;;;;;;;;5055740;28;20622;-68
2022/08/13 12:53:34;;;;;;;2.28;2.08;;;;;;;;;;5055753;28;20526;-67
2022/08/13 12:56:00;;;;;;;5.10;2.42;;;;;;;;;;5054400;28;20216;-67
2022/08/13 12:58:27;;;;;;;4.05;2.40;;;;;;;;;;5055987;28;20554;-67
2022/08/13 13:00:55;;;;;;;2.42;2.22;;;;;;;;;;5055567;28;20194;-67
2022/08/13 13:03:22;;;;;;;2.97;2.30;;;;;;;;;;5055592;28;20193;-67
2022/08/13 13:05:48;;;;;;;2.45;2.25;;;;;;;;;;5054347;28;20220;-67
2022/08/13 13:08:23;;;;;;;2.20;2.00;;;;;;;;;;5054150;28;20239;-67
2022/08/13 13:10:50;;;;;;;2.53;2.30;;;;;;;;;;5055766;28;20201;-67
2022/08/13 13:13:17;;;;;;;2.15;1.98;;;;;;;;;;5054149;28;20270;-66
2022/08/13 13:15:44;;;;;;;2.45;2.10;;;;;;;;;;5055424;28;20203;-68
2022/08/13 13:18:14;;;;;;;2.33;2.22;;;;;;;;;;5055642;28;20163;-67
2022/08/13 13:20:41;;;;;;;2.58;2.20;;;;;;;;;;5055675;28;20559;-68
2022/08/13 13:23:09;;;;;;;2.30;2.10;;;;;;;;;;5053954;28;20174;-67
2022/08/13 13:25:35;;;;;;;2.80;2.30;;;;;;;;;;5055441;28;20661;-68
2022/08/13 13:28:04;;;;;;;2.45;2.20;;;;;;;;;;5054057;28;20256;-68
2022/08/13 13:30:30;;;;;;;2.63;2.30;;;;;;;;;;5053938;28;20252;-67
2022/08/13 13:32:57;;;;;;;2.10;2.00;;;;;;;;;;5053944;28;20170;-68
2022/08/13 13:35:23;;;;;;;4.35;2.42;;;;;;;;;;5053893;28;20205;-68
2022/08/13 13:37:49;;;;;;;2.47;2.30;;;;;;;;;;5055056;28;20178;-68
2022/08/13 13:40:15;;;;;;;2.08;1.98;;;;;;;;;;5053633;28;20677;-67
2022/08/13 13:42:41;;;;;;;2.38;2.17;;;;;;;;;;5053689;28;20254;-67
2022/08/13 13:45:09;;;;;;;4.05;2.20;;;;;;;;;;5053647;28;20286;-68
2022/08/13 13:47:36;;;;;;;2.33;2.13;;;;;;;;;;5053811;28;20186;-66
2022/08/13 13:50:02;;;;;;;5.88;2.17;;;;;;;;;;5053783;28;20203;-68
2022/08/13 13:52:28;;;;;;;2.38;2.17;;;;;;;;;;5054958;28;20174;-68
2022/08/13 13:54:54;;;;;;;2.40;2.00;;;;;;;;;;5054742;28;20292;-68
2022/08/13 13:57:20;;;;;;;4.45;2.03;;;;;;;;;;5053429;28;20213;-69
2022/08/13 13:59:46;;;;;;;2.83;2.03;;;;;;;;;;5053626;28;20270;-68
2022/08/13 14:02:13;;;;;;;2.55;2.45;;;;;;;;;;5053709;28;20178;-69
2022/08/13 14:04:40;;;;;;;2.38;2.17;;;;;;;;;;5053617;28;20202;-69
2022/08/13 14:07:06;;;;;;;2.55;2.20;;;;;;;;;;5054800;28;20175;-66
2022/08/13 14:09:33;;;;;;;3.72;2.33;;;;;;;;;;5055005;28;20749;-69
2022/08/13 14:12:02;;;;;;;3.08;2.28;;;;;;;;;;5055673;28;20185;-69
2022/08/13 14:14:28;;;;;;;2.67;2.30;;;;;;;;;;5054201;28;20175;-69
2022/08/13 14:16:54;;;;;;;2.58;2.38;;;;;;;;;;5054450;28;20175;-69
2022/08/13 14:19:21;;;;;;;2.80;2.60;;;;;;;;;;5054583;28;20171;-69
2022/08/13 14:21:51;;;;;;;3.35;2.60;;;;;;;;;;5054536;28;20285;-69
2022/08/13 14:24:17;;;;;;;3.78;2.42;;;;;;;;;;5054789;28;20167;-69
2022/08/13 14:26:44;;;;;;;3.92;2.65;;;;;;;;;;5053533;28;20174;-69
2022/08/13 14:29:10;;;;;;;2.60;2.40;;;;;;;;;;5054353;28;20224;-69
2022/08/13 14:31:36;;;;;;;3.10;2.72;;;;;;;;;;5054026;28;20190;-68
2022/08/13 14:34:03;;;;;;;3.78;2.30;;;;;;;;;;5052626;28;20183;-66
2022/08/13 14:36:29;;;;;;;4.53;2.60;;;;;;;;;;5053963;28;20205;-67
2022/08/13 14:38:55;;;;;;;3.40;2.83;;;;;;;;;;5052764;28;20182;-68
2022/08/13 14:41:21;;;;;;;2.67;2.47;;;;;;;;;;5053340;28;20216;-69
2022/08/13 14:43:48;;;;;;;2.63;2.42;;;;;;;;;;5053674;28;20171;-68
2022/08/13 14:46:18;;;;;;;11.10;2.78;;;;;;;;;;5053561;28;20189;-68
2022/08/13 14:48:44;;;;;;;2.42;2.22;;;;;;;;;;5052419;28;20174;-68
2022/08/13 14:51:10;;;;;;;3.13;2.38;;;;;;;;;;5053529;28;20198;-68
2022/08/13 14:53:36;;;;;;;4.90;2.60;;;;;;;;;;5053800;28;20627;-68
2022/08/13 14:56:03;;;;;;;2.70;2.50;;;;;;;;;;5052233;28;20210;-68
2022/08/13 14:58:30;;;;;;;3.00;2.80;;;;;;;;;;5052052;28;20247;-68
2022/08/13 15:00:57;;;;;;;2.88;2.67;;;;;;;;;;5052292;28;20205;-68
2022/08/13 15:03:24;;;;;;;2.90;2.70;;;;;;;;;;5052320;28;20265;-68
2022/08/13 15:05:50;;;;;;;3.17;2.85;;;;;;;;;;5053388;28;20178;-68
2022/08/13 15:08:18;;;;;;;3.42;2.72;;;;;;;;;;5052046;28;20205;-69